sensor_id;sensor_type;location;lat;lon;timestamp;P1;durP1;ratioP1;P2;durP2;ratioP2
38853;SDS011;24606;51.992;4.198;2023-04-02T06:15:29;9.23;;;1.17;;
38853;SDS011;24606;51.992;4.198;2023-04-02T06:20:32;4.88;;;1.38;;
38853;SDS011;24606;51.992;4.198;2023-04-02T06:25:35;5.50;;;1.50;;
38853;SDS011;24606;51.992;4.198;2023-04-02T06:30:41;3.53;;;1.27;;
38853;SDS011;24606;51.992;4.198;2023-04-02T06:35:44;4.90;;;1.35;;
38853;SDS011;24606;51.992;4.198;2023-04-02T06:45:51;2.05;;;1.58;;
38853;SDS011;24606;51.992;4.198;2023-04-02T06:50:58;2.60;;;1.75;;
38853;SDS011;24606;51.992;4.198;2023-04-02T06:56:08;1.48;;;0.95;;
38853;SDS011;24606;51.992;4.198;2023-04-02T07:01:22;2.08;;;1.00;;
38853;SDS011;24606;51.992;4.198;2023-04-02T07:06:26;1.63;;;0.95;;
38853;SDS011;24606;51.992;4.198;2023-04-02T07:11:28;1.77;;;1.00;;
38853;SDS011;24606;51.992;4.198;2023-04-02T07:16:31;5.22;;;1.10;;
38853;SDS011;24606;51.992;4.198;2023-04-02T07:21:35;3.22;;;0.80;;
38853;SDS011;24606;51.992;4.198;2023-04-02T07:26:37;3.47;;;1.30;;
38853;SDS011;24606;51.992;4.198;2023-04-02T07:31:40;2.73;;;1.87;;
38853;SDS011;24606;51.992;4.198;2023-04-02T07:36:42;2.67;;;1.80;;
38853;SDS011;24606;51.992;4.198;2023-04-02T07:41:51;6.23;;;1.43;;
38853;SDS011;24606;51.992;4.198;2023-04-02T07:46:55;3.72;;;1.92;;
38853;SDS011;24606;51.992;4.198;2023-04-02T07:51:57;3.67;;;1.83;;
38853;SDS011;24606;51.992;4.198;2023-04-02T07:56:58;7.07;;;1.95;;
38853;SDS011;24606;51.992;4.198;2023-04-02T08:02:02;7.00;;;1.80;;
38853;SDS011;24606;51.992;4.198;2023-04-02T08:07:04;3.67;;;1.42;;
38853;SDS011;24606;51.992;4.198;2023-04-02T08:12:06;3.47;;;1.53;;
38853;SDS011;24606;51.992;4.198;2023-04-02T08:27:14;9.40;;;4.57;;
38853;SDS011;24606;51.992;4.198;2023-04-02T08:32:17;6.45;;;2.78;;
38853;SDS011;24606;51.992;4.198;2023-04-02T08:37:19;9.20;;;3.83;;
38853;SDS011;24606;51.992;4.198;2023-04-02T08:42:21;4.07;;;2.03;;
38853;SDS011;24606;51.992;4.198;2023-04-02T08:47:31;4.50;;;1.73;;
38853;SDS011;24606;51.992;4.198;2023-04-02T08:52:36;4.45;;;1.50;;
38853;SDS011;24606;51.992;4.198;2023-04-02T08:57:40;3.95;;;1.67;;
38853;SDS011;24606;51.992;4.198;2023-04-02T09:02:49;8.25;;;1.25;;
38853;SDS011;24606;51.992;4.198;2023-04-02T09:07:55;2.00;;;1.02;;
38853;SDS011;24606;51.992;4.198;2023-04-02T09:13:00;6.65;;;2.03;;
38853;SDS011;24606;51.992;4.198;2023-04-02T09:18:12;4.90;;;1.60;;
38853;SDS011;24606;51.992;4.198;2023-04-02T09:23:16;7.97;;;1.30;;
38853;SDS011;24606;51.992;4.198;2023-04-02T09:28:21;6.10;;;1.13;;
38853;SDS011;24606;51.992;4.198;2023-04-02T09:38:55;13.10;;;3.15;;
38853;SDS011;24606;51.992;4.198;2023-04-02T09:44:12;14.52;;;3.55;;
38853;SDS011;24606;51.992;4.198;2023-04-02T09:49:21;11.95;;;2.85;;
38853;SDS011;24606;51.992;4.198;2023-04-02T09:54:25;17.45;;;4.85;;
38853;SDS011;24606;51.992;4.198;2023-04-02T09:59:27;11.25;;;4.68;;
38853;SDS011;24606;51.992;4.198;2023-04-02T10:04:32;13.30;;;4.53;;
38853;SDS011;24606;51.992;4.198;2023-04-02T10:09:36;16.10;;;5.68;;
38853;SDS011;24606;51.992;4.198;2023-04-02T10:14:39;12.63;;;6.18;;
38853;SDS011;24606;51.992;4.198;2023-04-02T10:19:46;13.32;;;5.25;;
38853;SDS011;24606;51.992;4.198;2023-04-02T10:24:50;24.60;;;10.10;;
38853;SDS011;24606;51.992;4.198;2023-04-02T10:29:54;17.30;;;6.78;;
38853;SDS011;24606;51.992;4.198;2023-04-02T10:35:10;17.75;;;6.65;;
38853;SDS011;24606;51.992;4.198;2023-04-02T10:40:18;13.10;;;5.57;;
38853;SDS011;24606;51.992;4.198;2023-04-02T10:45:29;17.48;;;7.88;;
38853;SDS011;24606;51.992;4.198;2023-04-02T10:50:41;25.95;;;12.13;;
38853;SDS011;24606;51.992;4.198;2023-04-02T10:55:50;13.55;;;6.75;;
38853;SDS011;24606;51.992;4.198;2023-04-02T11:00:55;28.73;;;14.32;;
38853;SDS011;24606;51.992;4.198;2023-04-02T11:06:03;20.50;;;8.45;;
38853;SDS011;24606;51.992;4.198;2023-04-02T11:11:12;9.88;;;4.85;;
38853;SDS011;24606;51.992;4.198;2023-04-02T11:16:16;12.93;;;5.80;;
38853;SDS011;24606;51.992;4.198;2023-04-02T11:21:38;10.10;;;5.53;;
38853;SDS011;24606;51.992;4.198;2023-04-02T11:26:42;15.52;;;7.18;;
38853;SDS011;24606;51.992;4.198;2023-04-02T11:31:46;10.02;;;4.97;;
38853;SDS011;24606;51.992;4.198;2023-04-02T11:42:20;17.93;;;6.83;;
38853;SDS011;24606;51.992;4.198;2023-04-02T11:47:25;8.25;;;3.03;;
38853;SDS011;24606;51.992;4.198;2023-04-02T11:52:31;8.55;;;2.78;;
38853;SDS011;24606;51.992;4.198;2023-04-02T12:03:26;6.40;;;2.80;;
38853;SDS011;24606;51.992;4.198;2023-04-02T12:08:44;10.68;;;4.93;;
38853;SDS011;24606;51.992;4.198;2023-04-02T12:13:54;8.63;;;3.58;;
38853;SDS011;24606;51.992;4.198;2023-04-02T12:18:57;5.55;;;2.60;;
38853;SDS011;24606;51.992;4.198;2023-04-02T12:24:01;4.90;;;2.10;;
38853;SDS011;24606;51.992;4.198;2023-04-02T12:29:13;3.90;;;1.33;;
38853;SDS011;24606;51.992;4.198;2023-04-02T12:34:16;6.53;;;1.48;;
38853;SDS011;24606;51.992;4.198;2023-04-02T12:39:21;6.30;;;1.38;;
38853;SDS011;24606;51.992;4.198;2023-04-02T12:44:24;8.75;;;1.20;;
38853;SDS011;24606;51.992;4.198;2023-04-02T12:49:30;5.38;;;1.20;;
38853;SDS011;24606;51.992;4.198;2023-04-02T12:54:42;3.22;;;1.20;;
38853;SDS011;24606;51.992;4.198;2023-04-02T12:59:45;4.82;;;1.00;;
38853;SDS011;24606;51.992;4.198;2023-04-02T13:04:48;5.03;;;0.98;;
38853;SDS011;24606;51.992;4.198;2023-04-02T13:09:52;5.97;;;1.20;;
38853;SDS011;24606;51.992;4.198;2023-04-02T13:14:55;4.75;;;1.17;;
38853;SDS011;24606;51.992;4.198;2023-04-02T13:25:29;4.63;;;1.10;;
38853;SDS011;24606;51.992;4.198;2023-04-02T13:30:34;7.13;;;1.25;;
38853;SDS011;24606;51.992;4.198;2023-04-02T13:35:36;5.50;;;2.40;;
38853;SDS011;24606;51.992;4.198;2023-04-02T13:40:40;5.47;;;1.42;;
38853;SDS011;24606;51.992;4.198;2023-04-02T13:45:42;3.80;;;1.42;;
38853;SDS011;24606;51.992;4.198;2023-04-02T13:50:47;9.27;;;1.00;;
38853;SDS011;24606;51.992;4.198;2023-04-02T13:55:50;6.65;;;1.30;;
38853;SDS011;24606;51.992;4.198;2023-04-02T14:00:52;6.40;;;1.30;;
38853;SDS011;24606;51.992;4.198;2023-04-02T14:05:56;15.32;;;1.45;;
38853;SDS011;24606;51.992;4.198;2023-04-02T14:11:10;6.60;;;0.85;;
38853;SDS011;24606;51.992;4.198;2023-04-02T14:16:24;2.80;;;0.95;;
38853;SDS011;24606;51.992;4.198;2023-04-02T14:21:38;4.53;;;1.45;;
38853;SDS011;24606;51.992;4.198;2023-04-02T14:26:51;8.73;;;1.33;;
38853;SDS011;24606;51.992;4.198;2023-04-02T14:32:05;2.75;;;1.10;;
38853;SDS011;24606;51.992;4.198;2023-04-02T14:37:11;11.60;;;1.10;;
38853;SDS011;24606;51.992;4.198;2023-04-02T14:42:23;7.65;;;0.63;;
38853;SDS011;24606;51.992;4.198;2023-04-02T14:47:32;3.28;;;1.10;;
38853;SDS011;24606;51.992;4.198;2023-04-02T14:52:40;2.13;;;0.90;;
38853;SDS011;24606;51.992;4.198;2023-04-02T14:57:47;2.35;;;0.90;;
38853;SDS011;24606;51.992;4.198;2023-04-02T15:02:53;5.28;;;0.90;;
38853;SDS011;24606;51.992;4.198;2023-04-02T15:07:59;2.58;;;0.77;;
38853;SDS011;24606;51.992;4.198;2023-04-02T15:13:09;5.65;;;1.00;;
38853;SDS011;24606;51.992;4.198;2023-04-02T15:18:16;4.32;;;0.93;;
38853;SDS011;24606;51.992;4.198;2023-04-02T15:28:29;3.20;;;0.80;;
38853;SDS011;24606;51.992;4.198;2023-04-02T15:33:42;3.53;;;0.77;;
38853;SDS011;24606;51.992;4.198;2023-04-02T15:38:46;1.70;;;0.90;;
38853;SDS011;24606;51.992;4.198;2023-04-02T15:43:55;1.88;;;0.70;;
38853;SDS011;24606;51.992;4.198;2023-04-02T15:49:09;3.13;;;1.08;;
38853;SDS011;24606;51.992;4.198;2023-04-02T15:54:26;4.45;;;1.10;;
38853;SDS011;24606;51.992;4.198;2023-04-02T15:59:45;3.33;;;0.60;;
38853;SDS011;24606;51.992;4.198;2023-04-02T16:04:59;3.75;;;0.93;;
38853;SDS011;24606;51.992;4.198;2023-04-02T16:10:05;2.55;;;0.75;;
38853;SDS011;24606;51.992;4.198;2023-04-02T16:15:18;2.60;;;0.60;;
38853;SDS011;24606;51.992;4.198;2023-04-02T16:20:25;2.45;;;0.90;;
38853;SDS011;24606;51.992;4.198;2023-04-02T16:25:33;1.30;;;0.77;;
38853;SDS011;24606;51.992;4.198;2023-04-02T16:30:44;2.53;;;0.77;;
38853;SDS011;24606;51.992;4.198;2023-04-02T16:35:58;5.03;;;0.80;;
38853;SDS011;24606;51.992;4.198;2023-04-02T16:41:07;4.33;;;1.23;;
38853;SDS011;24606;51.992;4.198;2023-04-02T16:46:19;2.75;;;1.02;;
38853;SDS011;24606;51.992;4.198;2023-04-02T16:51:27;3.58;;;1.30;;
38853;SDS011;24606;51.992;4.198;2023-04-02T16:56:41;1.67;;;0.95;;
38853;SDS011;24606;51.992;4.198;2023-04-02T17:01:55;3.15;;;0.90;;
38853;SDS011;24606;51.992;4.198;2023-04-02T17:07:04;1.92;;;0.70;;
38853;SDS011;24606;51.992;4.198;2023-04-02T17:12:18;1.20;;;0.60;;
38853;SDS011;24606;51.992;4.198;2023-04-02T17:17:23;4.35;;;0.80;;
38853;SDS011;24606;51.992;4.198;2023-04-02T17:22:25;5.78;;;0.70;;
38853;SDS011;24606;51.992;4.198;2023-04-02T17:27:28;2.15;;;0.63;;
38853;SDS011;24606;51.992;4.198;2023-04-02T17:32:37;1.85;;;0.80;;
38853;SDS011;24606;51.992;4.198;2023-04-02T17:37:39;3.22;;;1.00;;
38853;SDS011;24606;51.992;4.198;2023-04-02T17:42:49;1.92;;;0.57;;
38853;SDS011;24606;51.992;4.198;2023-04-02T17:48:01;5.18;;;0.88;;
38853;SDS011;24606;51.992;4.198;2023-04-02T17:53:07;2.47;;;0.70;;
38853;SDS011;24606;51.992;4.198;2023-04-02T17:58:33;3.33;;;0.80;;
38853;SDS011;24606;51.992;4.198;2023-04-02T18:04:03;1.58;;;0.73;;
38853;SDS011;24606;51.992;4.198;2023-04-02T18:09:25;1.60;;;0.68;;
38853;SDS011;24606;51.992;4.198;2023-04-02T18:14:40;3.35;;;0.95;;
38853;SDS011;24606;51.992;4.198;2023-04-02T18:19:58;2.38;;;0.90;;
38853;SDS011;24606;51.992;4.198;2023-04-02T18:30:28;3.45;;;1.20;;
38853;SDS011;24606;51.992;4.198;2023-04-02T18:35:37;1.70;;;1.08;;
38853;SDS011;24606;51.992;4.198;2023-04-02T18:40:48;2.78;;;1.30;;
38853;SDS011;24606;51.992;4.198;2023-04-02T18:46:02;1.83;;;0.77;;
38853;SDS011;24606;51.992;4.198;2023-04-02T18:51:12;2.47;;;1.15;;
38853;SDS011;24606;51.992;4.198;2023-04-02T18:56:19;1.77;;;0.98;;
38853;SDS011;24606;51.992;4.198;2023-04-02T19:01:24;2.35;;;1.10;;
38853;SDS011;24606;51.992;4.198;2023-04-02T19:06:34;2.13;;;1.15;;
38853;SDS011;24606;51.992;4.198;2023-04-02T19:11:37;2.22;;;1.40;;
38853;SDS011;24606;51.992;4.198;2023-04-02T19:16:43;2.03;;;1.30;;
38853;SDS011;24606;51.992;4.198;2023-04-02T19:22:17;7.40;;;1.35;;
38853;SDS011;24606;51.992;4.198;2023-04-02T19:27:30;3.42;;;1.90;;
38853;SDS011;24606;51.992;4.198;2023-04-02T19:32:45;4.18;;;2.45;;
38853;SDS011;24606;51.992;4.198;2023-04-02T19:37:57;6.85;;;2.80;;
38853;SDS011;24606;51.992;4.198;2023-04-02T19:43:15;6.50;;;3.40;;
38853;SDS011;24606;51.992;4.198;2023-04-02T19:48:18;5.53;;;3.50;;
38853;SDS011;24606;51.992;4.198;2023-04-02T19:53:23;7.22;;;3.47;;
38853;SDS011;24606;51.992;4.198;2023-04-02T19:58:26;6.15;;;3.45;;
38853;SDS011;24606;51.992;4.198;2023-04-02T20:03:29;6.82;;;3.58;;
38853;SDS011;24606;51.992;4.198;2023-04-02T20:08:32;8.35;;;3.35;;
38853;SDS011;24606;51.992;4.198;2023-04-02T20:13:35;5.88;;;3.35;;
38853;SDS011;24606;51.992;4.198;2023-04-02T20:18:37;8.60;;;3.17;;
38853;SDS011;24606;51.992;4.198;2023-04-02T20:23:40;6.28;;;2.83;;
38853;SDS011;24606;51.992;4.198;2023-04-02T20:28:42;7.60;;;3.05;;
38853;SDS011;24606;51.992;4.198;2023-04-02T20:33:44;5.47;;;2.78;;
38853;SDS011;24606;51.992;4.198;2023-04-02T20:38:48;6.22;;;2.53;;
38853;SDS011;24606;51.992;4.198;2023-04-02T20:43:51;7.25;;;2.47;;
38853;SDS011;24606;51.992;4.198;2023-04-02T20:48:53;4.22;;;2.35;;
38853;SDS011;24606;51.992;4.198;2023-04-02T20:53:56;6.47;;;2.20;;
38853;SDS011;24606;51.992;4.198;2023-04-02T20:58:58;4.75;;;2.40;;
38853;SDS011;24606;51.992;4.198;2023-04-02T21:04:01;5.60;;;2.35;;
38853;SDS011;24606;51.992;4.198;2023-04-02T21:09:05;3.22;;;1.80;;
38853;SDS011;24606;51.992;4.198;2023-04-02T21:14:08;5.10;;;2.60;;
38853;SDS011;24606;51.992;4.198;2023-04-02T21:19:10;3.30;;;2.05;;
38853;SDS011;24606;51.992;4.198;2023-04-02T21:24:14;4.65;;;2.67;;
38853;SDS011;24606;51.992;4.198;2023-04-02T21:29:16;3.30;;;2.13;;
38853;SDS011;24606;51.992;4.198;2023-04-02T21:34:18;4.28;;;2.22;;
38853;SDS011;24606;51.992;4.198;2023-04-02T21:39:22;4.32;;;2.63;;
38853;SDS011;24606;51.992;4.198;2023-04-02T21:44:25;3.47;;;1.70;;
38853;SDS011;24606;51.992;4.198;2023-04-02T21:49:26;2.78;;;1.73;;
38853;SDS011;24606;51.992;4.198;2023-04-02T21:54:30;5.05;;;2.58;;
38853;SDS011;24606;51.992;4.198;2023-04-02T21:59:32;4.55;;;2.65;;
38853;SDS011;24606;51.992;4.198;2023-04-02T22:04:34;6.03;;;3.35;;
38853;SDS011;24606;51.992;4.198;2023-04-02T22:09:37;3.88;;;2.55;;
38853;SDS011;24606;51.992;4.198;2023-04-02T22:14:39;5.55;;;3.58;;
38853;SDS011;24606;51.992;4.198;2023-04-02T22:19:41;6.07;;;3.35;;
38853;SDS011;24606;51.992;4.198;2023-04-02T22:24:45;6.03;;;3.38;;
38853;SDS011;24606;51.992;4.198;2023-04-02T22:29:47;4.75;;;2.92;;
38853;SDS011;24606;51.992;4.198;2023-04-02T22:34:48;3.88;;;2.30;;
38853;SDS011;24606;51.992;4.198;2023-04-02T22:39:52;5.15;;;2.55;;
38853;SDS011;24606;51.992;4.198;2023-04-02T22:44:54;6.57;;;3.05;;
38853;SDS011;24606;51.992;4.198;2023-04-02T22:49:56;4.47;;;2.55;;
38853;SDS011;24606;51.992;4.198;2023-04-02T22:54:59;6.40;;;2.72;;
38853;SDS011;24606;51.992;4.198;2023-04-02T23:00:02;4.95;;;2.78;;
38853;SDS011;24606;51.992;4.198;2023-04-02T23:05:06;3.92;;;2.35;;
38853;SDS011;24606;51.992;4.198;2023-04-02T23:10:11;6.72;;;3.70;;
38853;SDS011;24606;51.992;4.198;2023-04-02T23:15:13;6.10;;;3.22;;
38853;SDS011;24606;51.992;4.198;2023-04-02T23:20:15;4.88;;;2.75;;
38853;SDS011;24606;51.992;4.198;2023-04-02T23:25:18;5.75;;;2.90;;
38853;SDS011;24606;51.992;4.198;2023-04-02T23:30:20;6.55;;;3.63;;
38853;SDS011;24606;51.992;4.198;2023-04-02T23:35:22;7.20;;;3.42;;
38853;SDS011;24606;51.992;4.198;2023-04-02T23:45:27;4.50;;;2.50;;
38853;SDS011;24606;51.992;4.198;2023-04-02T23:50:29;8.05;;;2.90;;
38853;SDS011;24606;51.992;4.198;2023-04-02T23:55:32;5.53;;;2.85;;
